Time;durP1;ratioP1;P1;durP2;ratioP2;P2;SDS_P1;SDS_P2;PMS_P1;PMS_P2;Temp;Humidity;BMP_temperature;BMP_pressure;BME280_temperature;BME280_humidity;BME280_pressure;Samples;Min_cycle;Max_cycle;Signal;HPM_P1;HPM_P2
2022/03/29 00:00:39;;;;;;;;;30.67;29.00;;;;;30.69;17.79;100862.78;5057690;28;45371;-79
2022/03/29 00:03:06;;;;;;;;;28.00;26.33;;;;;30.41;17.45;100807.91;5057674;28;45374;-79
2022/03/29 00:05:32;;;;;;;;;29.33;27.33;;;;;30.68;17.61;100853.72;5057645;28;45445;-79
2022/03/29 00:07:57;;;;;;;;;35.67;29.67;;;;;30.85;17.61;100858.09;5057533;28;46283;-79
2022/03/29 00:10:23;;;;;;;;;28.00;26.33;;;;;30.83;17.33;100842.75;5055740;28;45469;-79
2022/03/29 00:12:53;;;;;;;;;29.00;28.33;;;;;31.17;17.43;100882.56;5057765;28;45565;-79
2022/03/29 00:15:18;;;;;;;;;30.00;30.00;;;;;30.87;17.82;100826.03;5057598;28;45468;-79
2022/03/29 00:17:44;;;;;;;;;34.00;28.00;;;;;30.87;17.55;100855.25;5057422;28;46148;-79
2022/03/29 00:20:09;;;;;;;;;29.67;27.33;;;;;30.59;17.91;100825.06;5057414;28;45304;-79
2022/03/29 00:22:35;;;;;;;;;28.33;26.00;;;;;30.99;17.80;100868.16;5057208;28;45329;-79
2022/03/29 00:25:00;;;;;;;;;27.00;26.00;;;;;30.94;17.75;100863.00;5057135;28;45361;-79
2022/03/29 00:27:26;;;;;;;;;27.33;25.67;;;;;30.53;17.94;100797.19;5057294;28;46117;-79
2022/03/29 00:29:51;;;;;;;;;36.00;31.67;;;;;30.75;18.08;100852.34;5057250;28;45384;-79
2022/03/29 00:32:16;;;;;;;;;30.00;28.33;;;;;30.65;17.65;100836.59;5056830;28;45959;-79
2022/03/29 00:34:42;;;;;;;;;27.67;24.67;;;;;30.71;17.88;100845.28;5057352;28;45468;-79
2022/03/29 00:37:08;;;;;;;;;27.67;25.00;;;;;30.72;18.11;100843.44;5056934;28;46059;-79
2022/03/29 00:39:33;;;;;;;;;30.00;28.00;;;;;30.41;18.01;100793.38;5057001;28;45424;-79
2022/03/29 00:42:00;;;;;;;;;32.33;30.00;;;;;30.62;18.15;100826.72;5057194;28;45412;-78
2022/03/29 00:44:34;;;;;;;;;30.33;27.00;;;;;30.58;18.29;100823.28;5057198;28;45528;-79
2022/03/29 00:47:01;;;;;;;;;36.00;31.33;;;;;30.43;18.17;100818.81;5056805;28;47060;-79
2022/03/29 00:49:27;;;;;;;;;36.33;30.67;;;;;30.02;18.54;100738.31;5056965;28;45409;-79
2022/03/29 00:52:00;;;;;;;;;29.33;28.67;;;;;30.28;17.99;100779.56;5056934;28;45502;-79
2022/03/29 00:54:30;;;;;;;;;34.33;28.67;;;;;30.57;18.14;100815.19;5056536;28;45451;-79
2022/03/29 00:57:00;;;;;;;;;33.00;28.00;;;;;30.59;18.31;100808.63;5056892;28;46459;-79
2022/03/29 00:59:26;;;;;;;;;34.67;30.67;;;;;30.33;18.33;100758.25;5056765;28;45389;-79
2022/03/29 01:01:52;;;;;;;;;34.67;27.33;;;;;30.39;18.79;100749.66;5056729;28;45371;-79
2022/03/29 01:04:18;;;;;;;;;34.00;27.67;;;;;30.66;18.37;100794.53;5056579;28;45418;-79
2022/03/29 01:06:44;;;;;;;;;32.33;30.67;;;;;30.26;18.19;100721.31;5056124;28;45372;-79
2022/03/29 01:09:13;;;;;;;;;28.33;27.00;;;;;30.60;18.50;100760.22;5056079;28;45293;-79
2022/03/29 01:11:39;;;;;;;;;28.67;27.00;;;;;30.74;18.41;100787.56;5056663;28;45363;-79
2022/03/29 01:14:04;;;;;;;;;32.33;26.33;;;;;30.72;18.68;100784.06;5056463;28;45461;-79
2022/03/29 01:19:17;;;;;;;;;30.67;28.00;;;;;30.69;18.56;100759.63;5056264;28;45436;-79
2022/03/29 01:21:57;;;;;;;;;30.00;27.33;;;;;30.68;18.11;100767.94;5056472;28;45358;-80
2022/03/29 01:24:25;;;;;;;;;26.67;26.67;;;;;30.53;18.49;100743.31;5056469;28;45547;-79
2022/03/29 01:26:51;;;;;;;;;27.33;24.67;;;;;30.26;18.21;100732.25;5056411;28;45391;-79
2022/03/29 01:29:17;;;;;;;;;32.67;29.33;;;;;29.79;18.86;100663.16;5055948;28;45455;-79
2022/03/29 01:31:43;;;;;;;;;24.67;21.67;;;;;30.19;18.56;100723.56;5056505;28;45499;-79
2022/03/29 01:34:09;;;;;;;;;33.00;30.67;;;;;30.39;18.59;100763.34;5056351;28;45391;-80
2022/03/29 01:36:34;;;;;;;;;33.67;31.33;;;;;30.31;18.66;100743.81;5055885;28;45436;-80
2022/03/29 01:39:00;;;;;;;;;30.00;27.67;;;;;30.34;18.79;100724.44;5056339;28;45399;-80
2022/03/29 01:41:27;;;;;;;;;31.00;29.00;;;;;30.42;18.25;100741.25;5056025;28;45339;-80
2022/03/29 01:43:52;;;;;;;;;31.67;28.33;;;;;30.45;18.65;100738.34;5056037;28;45359;-80
2022/03/29 01:46:18;;;;;;;;;33.67;28.00;;;;;30.40;18.95;100736.84;5055754;28;45411;-80
2022/03/29 01:48:43;;;;;;;;;25.67;21.00;;;;;30.24;18.78;100709.59;5055892;28;45475;-80
2022/03/29 01:51:10;;;;;;;;;30.67;29.67;;;;;30.25;18.97;100719.56;5055629;28;45333;-80
2022/03/29 01:53:37;;;;;;;;;28.00;26.67;;;;;30.44;18.90;100725.63;5056240;28;45408;-79
2022/03/29 01:56:02;;;;;;;;;28.00;25.33;;;;;30.50;18.73;100721.59;5055629;28;46009;-80
2022/03/29 01:58:32;;;;;;;;;31.00;29.00;;;;;30.05;18.84;100666.13;5055776;28;45349;-80
2022/03/29 02:00:58;;;;;;;;;29.67;25.00;;;;;30.50;18.49;100709.78;5055792;28;45344;-80
2022/03/29 02:03:24;;;;;;;;;31.00;27.00;;;;;30.48;18.39;100717.22;5055757;28;45361;-80
2022/03/29 02:05:49;;;;;;;;;31.67;27.67;;;;;30.23;18.55;100716.91;5055263;28;45354;-80
2022/03/29 02:08:16;;;;;;;;;34.00;29.33;;;;;29.80;18.45;100669.50;5055419;28;45400;-80
2022/03/29 02:10:42;;;;;;;;;29.00;23.67;;;;;29.93;18.50;100701.50;5055820;28;45550;-79
2022/03/29 02:13:11;;;;;;;;;35.33;33.00;;;;;29.92;18.73;100699.72;5055560;28;45491;-80
2022/03/29 02:15:39;;;;;;;;;32.33;28.67;;;;;29.62;18.76;100661.50;5055525;28;45341;-80
2022/03/29 02:18:06;;;;;;;;;30.33;25.00;;;;;29.82;18.52;100692.16;5054386;28;45407;-79
2022/03/29 02:20:32;;;;;;;;;32.00;26.33;;;;;29.63;18.54;100660.50;5055296;28;45452;-79
2022/03/29 02:23:04;;;;;;;;;34.67;29.00;;;;;29.34;18.53;100596.72;5055483;28;45590;-79
2022/03/29 02:25:30;;;;;;;;;32.33;28.67;;;;;29.71;18.30;100655.44;5055308;28;46105;-79
2022/03/29 02:27:55;;;;;;;;;33.67;29.67;;;;;29.86;18.41;100663.66;5055283;28;45497;-80
2022/03/29 02:30:21;;;;;;;;;30.67;26.00;;;;;29.61;18.89;100607.78;5055430;28;45817;-79
2022/03/29 02:32:46;;;;;;;;;29.33;23.67;;;;;30.01;18.36;100653.63;5055560;28;45433;-80
2022/03/29 02:35:12;;;;;;;;;28.67;28.00;;;;;30.08;18.17;100672.28;5054934;28;45653;-79
2022/03/29 02:37:38;;;;;;;;;30.33;27.67;;;;;30.15;18.43;100661.81;5055298;28;45560;-78
2022/03/29 02:40:05;;;;;;;;;34.00;31.00;;;;;29.97;18.39;100641.97;5055522;28;45420;-78
2022/03/29 02:42:32;;;;;;;;;33.33;27.33;;;;;29.89;18.09;100611.53;5055392;28;45432;-79
2022/03/29 02:44:58;;;;;;;;;27.33;24.67;;;;;30.12;18.02;100651.06;5055075;28;46257;-79
2022/03/29 02:47:23;;;;;;;;;24.67;24.00;;;;;29.92;17.55;100611.34;5055053;28;45404;-79
2022/03/29 02:49:49;;;;;;;;;30.00;26.67;;;;;30.12;18.05;100626.44;5055083;28;45750;-79
2022/03/29 02:52:14;;;;;;;;;26.67;23.67;;;;;29.71;18.26;100542.47;5053765;28;45646;-79
2022/03/29 02:54:39;;;;;;;;;29.00;25.33;;;;;29.94;18.02;100582.91;5055108;28;45980;-79
2022/03/29 02:57:05;;;;;;;;;28.33;24.33;;;;;30.17;18.54;100635.25;5055186;28;45525;-79
2022/03/29 02:59:30;;;;;;;;;27.67;25.33;;;;;30.19;18.10;100630.53;5054982;28;45401;-79
2022/03/29 03:01:57;;;;;;;;;27.67;24.00;;;;;30.02;18.51;100606.16;5054996;28;45409;-79
2022/03/29 03:04:22;;;;;;;;;32.67;27.00;;;;;30.16;18.55;100611.59;5054343;28;45547;-79
2022/03/29 03:06:48;;;;;;;;;32.33;27.00;;;;;30.20;18.35;100615.88;5055060;28;45452;-79
2022/03/29 03:09:13;;;;;;;;;23.00;19.67;;;;;30.07;18.50;100596.66;5055201;28;45427;-79
2022/03/29 03:11:39;;;;;;;;;31.00;26.00;;;;;30.17;18.19;100609.72;5055191;28;45465;-79
2022/03/29 03:14:05;;;;;;;;;30.00;27.00;;;;;30.14;18.29;100615.41;5054813;28;45411;-79
2022/03/29 03:16:30;;;;;;;;;25.67;25.67;;;;;29.90;18.74;100610.53;5054634;28;45318;-79
2022/03/29 03:18:56;;;;;;;;;38.67;30.00;;;;;29.92;18.73;100606.72;5054797;28;45428;-80
2022/03/29 03:21:21;;;;;;;;;28.33;24.33;;;;;30.11;18.45;100614.63;5054763;28;45339;-79
2022/03/29 03:23:46;;;;;;;;;27.33;26.00;;;;;29.97;18.47;100581.81;5054549;28;45609;-79
2022/03/29 03:26:12;;;;;;;;;23.33;22.33;;;;;30.14;18.04;100615.41;5054278;28;45390;-79
2022/03/29 03:28:37;;;;;;;;;30.00;28.33;;;;;30.11;18.17;100600.06;5054773;28;45495;-79
2022/03/29 03:31:02;;;;;;;;;27.00;24.33;;;;;30.20;17.71;100588.50;5057772;28;45363;-79
2022/03/29 03:33:28;;;;;;;;;30.67;26.00;;;;;30.22;18.60;100607.56;5057674;28;45425;-79
2022/03/29 03:35:53;;;;;;;;;31.00;27.67;;;;;30.21;18.28;100603.06;5058339;28;45384;-79
2022/03/29 03:38:19;;;;;;;;;31.00;26.33;;;;;30.08;18.20;100612.09;5058171;28;45396;-79
2022/03/29 03:40:44;;;;;;;;;30.00;27.67;;;;;29.81;17.92;100583.78;5057946;28;45500;-79
2022/03/29 03:43:11;;;;;;;;;32.67;29.33;;;;;29.84;18.07;100609.06;5058294;28;45390;-79
2022/03/29 03:45:36;;;;;;;;;28.00;23.00;;;;;29.60;17.94;100541.28;5057733;28;45361;-79
2022/03/29 03:48:03;;;;;;;;;32.67;30.00;;;;;30.17;17.62;100599.66;5057723;28;45474;-79
2022/03/29 03:50:29;;;;;;;;;22.67;22.33;;;;;30.24;18.06;100591.94;5057533;28;45385;-79
2022/03/29 03:52:54;;;;;;;;;32.67;28.33;;;;;30.05;18.49;100556.69;5056211;28;46683;-79
2022/03/29 03:55:21;;;;;;;;;32.67;29.67;;;;;30.16;17.67;100586.09;5057569;28;45326;-79
2022/03/29 03:57:47;;;;;;;;;29.67;28.33;;;;;29.89;17.77;100563.19;5058152;28;45291;-79
2022/03/29 04:00:13;;;;;;;;;29.67;27.67;;;;;30.12;17.74;100593.63;5057724;28;45507;-79
2022/03/29 04:02:39;;;;;;;;;32.33;27.00;;;;;30.04;17.87;100549.47;5057211;28;45428;-79
2022/03/29 04:05:08;;;;;;;;;32.33;27.00;;;;;29.90;17.42;100536.69;5057562;28;45418;-79
2022/03/29 04:07:34;;;;;;;;;27.00;22.67;;;;;30.00;17.25;100564.31;5057388;28;45393;-79
2022/03/29 04:09:59;;;;;;;;;29.00;24.00;;;;;29.70;17.79;100514.22;5057590;28;45424;-79
2022/03/29 04:12:25;;;;;;;;;29.00;24.00;;;;;30.09;17.36;100581.00;5056965;28;46307;-79
2022/03/29 04:14:50;;;;;;;;;26.67;24.33;;;;;30.00;17.41;100572.53;5057485;28;45376;-79
2022/03/29 04:17:15;;;;;;;;;28.67;25.33;;;;;29.83;17.67;100538.94;5057409;28;45659;-79
2022/03/29 04:19:41;;;;;;;;;33.33;29.00;;;;;29.83;17.93;100519.81;5057635;28;45552;-78
2022/03/29 04:22:06;;;;;;;;;28.00;25.00;;;;;29.60;17.41;100497.53;5056837;28;46379;-79
2022/03/29 04:24:31;;;;;;;;;26.00;25.67;;;;;29.87;17.84;100554.22;5057044;28;45456;-79
2022/03/29 04:26:58;;;;;;;;;30.67;26.33;;;;;29.54;18.00;100535.34;5057197;28;45379;-79
2022/03/29 04:29:23;;;;;;;;;27.33;23.00;;;;;29.65;18.05;100554.69;5057245;28;45380;-78
2022/03/29 04:31:49;;;;;;;;;28.33;24.33;;;;;29.52;17.89;100520.91;5056509;28;45717;-79
2022/03/29 04:34:15;;;;;;;;;30.00;25.67;;;;;29.79;17.56;100567.47;5057201;28;45331;-79
2022/03/29 04:36:40;;;;;;;;;26.33;23.33;;;;;29.82;17.82;100560.88;5057221;28;45459;-78
2022/03/29 04:39:06;;;;;;;;;26.33;22.67;;;;;29.50;17.79;100514.66;5057167;28;45302;-79
2022/03/29 04:41:32;;;;;;;;;27.00;22.33;;;;;29.64;17.99;100552.91;5056100;28;46209;-79
2022/03/29 04:43:57;;;;;;;;;23.33;22.67;;;;;29.47;18.23;100544.94;5056998;28;45435;-79
2022/03/29 04:46:23;;;;;;;;;26.67;23.67;;;;;29.30;18.29;100514.09;5056530;28;45388;-79
2022/03/29 04:48:52;;;;;;;;;26.33;22.33;;;;;29.56;18.11;100538.84;5057030;28;45482;-78
2022/03/29 04:51:17;;;;;;;;;26.00;23.67;;;;;29.35;18.28;100483.72;5056637;28;46234;-79
2022/03/29 04:53:43;;;;;;;;;14.67;14.67;;;;;29.96;18.07;100560.94;5056663;28;45339;-79
2022/03/29 04:56:08;;;;;;;;;17.00;15.67;;;;;30.04;17.95;100561.31;5056711;28;45332;-79
2022/03/29 04:58:33;;;;;;;;;20.67;20.00;;;;;29.94;17.86;100550.09;5056788;28;45337;-79
2022/03/29 05:00:59;;;;;;;;;20.67;15.00;;;;;29.88;18.17;100550.47;5055261;28;46557;-79
2022/03/29 05:03:25;;;;;;;;;24.33;21.33;;;;;29.99;17.85;100547.03;5056313;28;45471;-79
2022/03/29 05:05:51;;;;;;;;;24.00;22.67;;;;;29.93;17.86;100539.25;5056748;28;45514;-79
2022/03/29 05:08:16;;;;;;;;;21.33;20.67;;;;;29.63;17.77;100488.28;5056513;28;45611;-79
2022/03/29 05:10:41;;;;;;;;;22.33;19.00;;;;;29.89;17.92;100545.91;5056184;28;45400;-79
2022/03/29 05:13:07;;;;;;;;;23.67;20.33;;;;;29.69;18.26;100500.66;5056557;28;45300;-79
2022/03/29 05:15:33;;;;;;;;;27.33;22.33;;;;;29.70;18.08;100502.44;5056131;28;45341;-79
2022/03/29 05:17:58;;;;;;;;;25.67;23.33;;;;;29.23;18.18;100448.00;5056326;28;45329;-79
2022/03/29 05:20:24;;;;;;;;;31.00;22.67;;;;;29.70;18.12;100508.75;5056315;28;45348;-79
2022/03/29 05:22:51;;;;;;;;;21.67;20.67;;;;;29.86;18.15;100551.53;5056306;28;45293;-79
2022/03/29 05:25:22;;;;;;;;;30.00;23.00;;;;;29.66;18.11;100509.06;5056297;28;45340;-80
2022/03/29 05:27:48;;;;;;;;;29.00;22.67;;;;;29.81;18.35;100540.00;5056254;28;45455;-79
2022/03/29 05:30:15;;;;;;;;;26.33;23.67;;;;;29.78;18.25;100539.22;5055705;28;47154;-79
2022/03/29 05:32:41;;;;;;;;;26.33;20.67;;;;;29.75;18.29;100528.50;5055601;28;45457;-79
2022/03/29 05:35:08;;;;;;;;;26.33;24.33;;;;;29.92;18.09;100546.56;5056267;28;45397;-79
2022/03/29 05:37:38;;;;;;;;;27.67;22.33;;;;;29.99;18.09;100547.03;5055902;28;45502;-78
2022/03/29 05:40:06;;;;;;;;;28.33;22.67;;;;;30.08;17.94;100534.59;5055677;28;45298;-78
2022/03/29 05:42:36;;;;;;;;;26.67;22.67;;;;;29.93;18.33;100520.97;5055567;28;45582;-79
2022/03/29 05:45:01;;;;;;;;;35.33;31.00;;;;;29.98;18.21;100528.88;5055760;28;45523;-79
2022/03/29 05:50:11;;;;;;;;;26.33;25.00;;;;;30.04;18.32;100520.28;5055619;28;45442;-79
2022/03/29 05:52:36;;;;;;;;;16.67;16.67;;;;;30.06;18.19;100533.84;5054728;28;46515;-79
2022/03/29 05:55:02;;;;;;;;;24.67;22.00;;;;;30.16;18.44;100526.75;5055583;28;45360;-79
2022/03/29 05:57:27;;;;;;;;;26.33;23.67;;;;;29.80;18.16;100459.81;5055195;28;45519;-80
2022/03/29 05:59:53;;;;;;;;;18.67;18.67;;;;;30.22;18.15;100531.81;5055446;28;46207;-79
2022/03/29 06:02:18;;;;;;;;;27.33;23.33;;;;;30.15;18.17;100524.13;5055624;28;45469;-79
2022/03/29 06:04:43;;;;;;;;;27.33;24.00;;;;;30.17;18.27;100516.69;5055400;28;45420;-76
2022/03/29 06:07:09;;;;;;;;;15.67;14.33;;;;;30.23;18.10;100532.72;5055230;28;45448;-78
2022/03/29 06:09:35;;;;;;;;;24.33;23.00;;;;;30.35;18.31;100542.84;5055219;28;46116;-78
2022/03/29 06:12:01;;;;;;;;;25.00;25.00;;;;;29.92;18.00;100486.38;5055119;28;45513;-78
2022/03/29 06:14:26;;;;;;;;;28.67;21.67;;;;;30.33;17.90;100528.38;5055316;28;45369;-78
2022/03/29 06:16:52;;;;;;;;;35.00;25.67;;;;;30.15;17.95;100492.16;5055404;28;45321;-81
2022/03/29 06:19:19;;;;;;;;;32.00;25.00;;;;;30.31;18.18;100533.06;5055519;28;46007;-78
2022/03/29 06:21:45;;;;;;;;;23.00;19.00;;;;;30.31;18.18;100515.75;5054281;28;45581;-80
2022/03/29 06:24:11;;;;;;;;;25.00;23.67;;;;;30.45;18.73;100548.59;5055498;28;45478;-80
2022/03/29 06:26:39;;;;;;;;;26.33;25.67;;;;;30.35;18.60;100564.72;5054778;28;45488;-79
2022/03/29 06:29:05;;;;;;;;;29.00;25.33;;;;;29.45;19.14;100493.06;5048641;28;46216;-79
2022/03/29 06:31:30;;;;;;;;;35.00;31.00;;;;;29.55;19.31;100586.28;5051796;28;45203;-80
2022/03/29 06:33:56;;;;;;;;;28.67;26.00;;;;;29.26;19.06;100598.09;5057077;28;45377;-80
2022/03/29 06:36:22;;;;;;;;;38.00;32.00;;;;;29.63;19.24;100581.22;5055118;28;45550;-80
2022/03/29 06:38:47;;;;;;;;;31.33;26.67;;;;;30.05;18.21;100576.72;5054566;28;45385;-78
2022/03/29 06:41:13;;;;;;;;;26.67;24.00;;;;;30.23;18.28;100582.84;5054044;28;45266;-75
2022/03/29 06:43:40;;;;;;;;;28.00;24.33;;;;;30.08;18.12;100560.13;5043866;28;45381;-75
2022/03/29 06:46:08;;;;;;;;;31.00;26.67;;;;;30.25;18.02;100580.00;5045252;28;45340;-75
2022/03/29 06:48:34;;;;;;;;;23.00;21.67;;;;;30.21;18.22;100573.88;5046002;28;45527;-75
2022/03/29 06:50:59;;;;;;;;;24.33;24.00;;;;;30.31;17.97;100567.75;5049050;28;45434;-75
2022/03/29 06:53:25;;;;;;;;;34.67;25.33;;;;;30.14;18.74;100527.84;5042734;28;45498;-75
2022/03/29 06:55:51;;;;;;;;;26.67;26.00;;;;;30.45;18.67;100560.41;5050554;28;45447;-76
2022/03/29 06:58:17;;;;;;;;;23.00;22.00;;;;;30.11;18.07;100494.25;5038868;28;45396;-76
2022/03/29 07:00:43;;;;;;;;;26.33;23.67;;;;;30.31;17.88;100535.81;5057870;28;45551;-76
2022/03/29 07:03:08;;;;;;;;;27.33;23.67;;;;;30.09;18.25;100498.06;5055211;28;45415;-75
2022/03/29 07:05:36;;;;;;;;;28.00;23.33;;;;;30.47;18.32;100553.97;5069126;28;45437;-76
2022/03/29 07:08:02;;;;;;;;;23.33;23.33;;;;;30.42;18.51;100532.31;5058633;27;45904;-76
2022/03/29 07:13:11;;;;;;;;;29.00;27.67;;;;;30.53;18.23;100524.28;5073315;28;45361;-76
2022/03/29 07:15:36;;;;;;;;;19.00;17.33;;;;;30.71;18.22;100548.66;5078573;27;45461;-76
2022/03/29 07:18:02;;;;;;;;;24.00;22.00;;;;;30.73;18.39;100528.41;5069965;28;45408;-76
2022/03/29 07:20:27;;;;;;;;;28.00;23.33;;;;;30.54;18.39;100489.59;5064886;27;45571;-76
2022/03/29 07:22:53;;;;;;;;;24.67;23.00;;;;;30.95;17.81;100541.47;5064238;28;45582;-77
2022/03/29 07:25:20;;;;;;;;;30.00;23.33;;;;;30.89;17.94;100514.50;5058093;28;45508;-76
2022/03/29 07:27:47;;;;;;;;;29.00;21.33;;;;;30.92;17.75;100536.19;5066378;28;45472;-75
2022/03/29 07:30:13;;;;;;;;;32.33;28.33;;;;;30.78;18.27;100522.59;5063584;28;45426;-75
2022/03/29 07:32:48;;;;;;;;;25.67;22.67;;;;;30.89;17.83;100541.91;5053091;27;45436;-77
2022/03/29 07:35:16;;;;;;;;;21.67;19.33;;;;;31.01;18.52;100545.66;5045777;28;45395;-77
2022/03/29 07:37:43;;;;;;;;;25.00;23.33;;;;;30.85;18.53;100528.53;5070087;28;45348;-78
2022/03/29 07:40:13;;;;;;;;;32.00;27.00;;;;;31.12;18.11;100545.81;5059581;27;46353;-77
2022/03/29 07:42:39;;;;;;;;;27.00;23.67;;;;;31.24;18.21;100548.66;5056747;28;45534;-76
2022/03/29 07:45:06;;;;;;;;;30.67;23.33;;;;;31.07;18.41;100514.22;5063517;27;45426;-76
2022/03/29 07:47:34;;;;;;;;;31.67;26.67;;;;;31.30;17.95;100532.63;5056613;28;46222;-77
2022/03/29 07:50:01;;;;;;;;;23.67;22.67;;;;;31.25;18.32;100520.25;5057380;28;45411;-77
2022/03/29 07:52:27;;;;;;;;;26.67;23.33;;;;;31.24;17.80;100524.88;5040792;28;45563;-77
2022/03/29 07:54:53;;;;;;;;;28.67;28.67;;;;;31.24;18.27;100524.00;5075506;27;45596;-77
2022/03/29 07:57:18;;;;;;;;;30.67;23.67;;;;;30.99;18.47;100473.66;5055055;28;45403;-77
2022/03/29 07:59:44;;;;;;;;;25.00;23.67;;;;;31.26;18.41;100528.34;5057386;27;45325;-76
2022/03/29 08:02:09;;;;;;;;;23.67;22.33;;;;;31.32;17.62;100517.94;5053546;28;45363;-77
2022/03/29 08:04:35;;;;;;;;;29.67;26.67;;;;;31.48;18.25;100522.19;5055203;28;45345;-77
2022/03/29 08:07:00;;;;;;;;;25.33;22.33;;;;;31.55;17.88;100519.03;5055347;28;45411;-77
2022/03/29 08:09:27;;;;;;;;;32.00;25.33;;;;;31.52;17.59;100521.97;5067282;28;45465;-77
2022/03/29 08:11:52;;;;;;;;;25.67;22.33;;;;;31.47;17.99;100498.50;5072574;27;45406;-77
2022/03/29 08:14:19;;;;;;;;;27.33;24.00;;;;;31.19;17.81;100483.19;5056552;28;45382;-77
2022/03/29 08:16:44;;;;;;;;;29.67;27.67;;;;;31.38;17.64;100501.03;5055214;28;45410;-77
2022/03/29 08:19:10;;;;;;;;;25.67;22.33;;;;;31.50;17.89;100505.63;5063292;28;45738;-76
2022/03/29 08:21:50;;;;;;;;;27.67;25.00;;;;;31.59;17.85;100505.00;5065251;28;45339;-77
2022/03/29 08:24:24;;;;;;;;;29.67;24.67;;;;;31.44;18.03;100448.53;5061972;27;45549;-77
2022/03/29 08:26:52;;;;;;;;;28.00;24.00;;;;;31.59;17.90;100461.13;5062356;28;46283;-77
2022/03/29 08:29:21;;;;;;;;;29.67;23.67;;;;;31.68;17.93;100487.00;5067300;28;45471;-77
2022/03/29 08:31:51;;;;;;;;;24.67;22.33;;;;;31.94;17.42;100501.50;5072933;27;45529;-77
2022/03/29 08:34:17;;;;;;;;;29.33;26.00;;;;;32.16;17.33;100505.41;5045848;28;45409;-77
2022/03/29 08:36:43;;;;;;;;;25.67;25.00;;;;;32.25;17.08;100503.81;5048154;28;45464;-76
2022/03/29 08:39:10;;;;;;;;;24.00;21.67;;;;;32.26;16.94;100483.63;5060903;28;45525;-77
2022/03/29 08:41:46;;;;;;;;;27.67;25.67;;;;;32.03;17.69;100456.03;5063937;28;45402;-77
2022/03/29 08:44:12;;;;;;;;;29.67;26.33;;;;;32.07;17.44;100487.72;5057792;28;45356;-77
2022/03/29 08:46:41;;;;;;;;;27.67;24.00;;;;;32.07;17.45;100474.00;5076598;28;45428;-77
2022/03/29 08:49:07;;;;;;;;;31.00;23.33;;;;;32.10;17.92;100483.88;5066008;27;45408;-77
2022/03/29 08:51:34;;;;;;;;;26.33;24.00;;;;;32.04;17.17;100456.91;5094692;27;45535;-77
2022/03/29 08:54:00;;;;;;;;;24.67;24.33;;;;;32.26;17.86;100478.13;5055846;28;45499;-77
2022/03/29 08:56:25;;;;;;;;;29.33;24.33;;;;;32.34;17.40;100480.28;5069166;27;45995;-77
2022/03/29 08:58:51;;;;;;;;;25.00;23.00;;;;;32.39;17.28;100472.56;5077140;27;45508;-77
2022/03/29 09:01:21;;;;;;;;;30.67;26.67;;;;;32.25;17.74;100435.19;5068794;28;45440;-77
2022/03/29 09:04:08;;;;;;;;;27.33;25.00;;;;;32.43;17.40;100474.97;5076775;27;45325;-77
2022/03/29 09:06:54;;;;;;;;;37.00;32.00;;;;;32.12;16.84;100443.47;5076341;27;45995;-77
2022/03/29 09:09:41;;;;;;;;;28.00;26.00;;;;;32.05;16.76;100450.44;5060125;27;45471;-76
2022/03/29 09:12:18;;;;;;;;;28.33;22.33;;;;;32.00;17.03;100445.28;5056529;28;45467;-77
2022/03/29 09:14:53;;;;;;;;;25.00;22.67;;;;;32.18;16.87;100455.88;5045061;28;45540;-76
2022/03/29 09:17:35;;;;;;;;;35.33;29.67;;;;;32.29;16.49;100455.91;5056165;28;45841;-76
2022/03/29 09:20:03;;;;;;;;;26.00;24.67;;;;;32.15;16.73;100443.25;5056151;28;45508;-79
2022/03/29 09:22:42;;;;;;;;;28.00;25.67;;;;;32.11;16.53;100430.72;5065534;28;45329;-76
2022/03/29 09:25:10;;;;;;;;;33.00;30.00;;;;;32.17;16.52;100440.41;5045975;28;45582;-77
2022/03/29 09:27:56;;;;;;;;;37.33;30.00;;;;;32.14;17.04;100434.16;5055745;28;46502;-77
2022/03/29 09:30:23;;;;;;;;;38.00;32.00;;;;;32.26;16.71;100428.72;5037253;28;45510;-77
2022/03/29 09:33:00;;;;;;;;;39.33;33.33;;;;;32.40;16.45;100419.41;5051215;28;45473;-78
2022/03/29 09:35:27;;;;;;;;;37.33;33.33;;;;;32.49;16.44;100438.78;5054280;28;45326;-78
2022/03/29 09:37:53;;;;;;;;;41.33;35.00;;;;;32.68;16.41;100426.34;5052824;28;45501;-78
2022/03/29 09:40:19;;;;;;;;;42.33;35.33;;;;;32.75;16.34;100429.50;5046082;28;45407;-77
2022/03/29 09:43:02;;;;;;;;;42.33;35.67;;;;;32.77;16.50;100427.50;5057278;28;45399;-77
2022/03/29 09:45:38;;;;;;;;;42.33;33.33;;;;;32.91;16.46;100424.53;5046337;28;45461;-78
2022/03/29 09:48:22;;;;;;;;;36.33;32.00;;;;;33.09;16.21;100430.41;5057049;28;45434;-78
2022/03/29 09:50:48;;;;;;;;;31.33;29.33;;;;;32.80;16.66;100362.22;5067573;28;45512;-77
2022/03/29 09:53:37;;;;;;;;;33.00;28.00;;;;;33.13;16.82;100411.78;5045148;28;45538;-78
2022/03/29 09:56:03;;;;;;;;;28.00;26.00;;;;;32.97;16.73;100377.31;5057059;28;45462;-78
2022/03/29 09:58:28;;;;;;;;;27.33;26.00;;;;;32.96;16.46;100391.19;5054629;28;46477;-78
2022/03/29 10:00:55;;;;;;;;;32.00;29.00;;;;;32.76;16.28;100344.22;5050851;28;45376;-77
2022/03/29 10:03:27;;;;;;;;;31.67;27.00;;;;;33.24;16.77;100395.31;5053005;28;46716;-78
2022/03/29 10:05:58;;;;;;;;;28.67;26.33;;;;;33.10;16.19;100357.94;5056443;28;45443;-78
2022/03/29 10:11:15;;;;;;;;;30.00;26.33;;;;;33.51;16.38;100366.53;5051330;28;45639;-78
2022/03/29 10:13:42;;;;;;;;;38.33;31.67;;;;;33.69;16.15;100408.13;5050170;28;45518;-78
2022/03/29 10:16:13;;;;;;;;;26.00;24.67;;;;;33.63;16.10;100401.25;5054522;28;45538;-78
2022/03/29 10:18:40;;;;;;;;;29.67;28.33;;;;;33.64;16.10;100396.63;5059705;28;46155;-78
2022/03/29 10:21:07;;;;;;;;;33.67;28.33;;;;;33.64;16.44;100380.13;5054582;28;45410;-77
2022/03/29 10:23:36;;;;;;;;;29.33;26.00;;;;;33.44;16.34;100346.06;5054082;28;45410;-78
2022/03/29 10:26:01;;;;;;;;;27.00;25.67;;;;;33.72;16.32;100373.97;5054360;28;45441;-78
2022/03/29 10:28:30;;;;;;;;;33.33;29.33;;;;;33.89;15.70;100389.09;5058954;28;45500;-78
2022/03/29 10:30:56;;;;;;;;;30.33;28.33;;;;;33.94;16.10;100378.53;5054809;28;45739;-78
2022/03/29 10:33:26;;;;;;;;;31.33;29.33;;;;;33.96;15.72;100384.78;5053993;28;45408;-78
2022/03/29 10:36:14;;;;;;;;;36.33;30.67;;;;;34.04;15.74;100385.00;5053829;28;45517;-78
2022/03/29 10:38:48;;;;;;;;;31.00;29.67;;;;;34.14;15.86;100377.69;5053725;28;46989;-78
2022/03/29 10:41:28;;;;;;;;;36.00;31.33;;;;;34.11;15.92;100366.09;5045983;28;45524;-78
2022/03/29 10:44:11;;;;;;;;;35.33;29.67;;;;;33.97;16.25;100339.75;5049077;28;45447;-78
2022/03/29 10:46:37;;;;;;;;;32.33;28.00;;;;;34.14;16.04;100365.81;5054412;28;45404;-78
2022/03/29 10:49:34;;;;;;;;;29.67;24.33;;;;;34.11;16.21;100364.22;5060988;28;45729;-79
2022/03/29 10:52:05;;;;;;;;;29.00;28.33;;;;;34.25;16.06;100359.34;5071980;27;45913;-78
2022/03/29 10:54:30;;;;;;;;;31.00;28.00;;;;;34.33;16.22;100359.59;5034571;28;45577;-78
2022/03/29 10:57:04;;;;;;;;;35.33;30.67;;;;;34.39;16.47;100360.94;5067590;28;45625;-78
2022/03/29 10:59:30;;;;;;;;;32.33;26.33;;;;;34.46;16.61;100352.00;5086577;27;46386;-78
2022/03/29 11:02:12;;;;;;;;;28.33;28.00;;;;;34.49;16.04;100345.38;5061713;28;45461;-79
2022/03/29 11:05:04;;;;;;;;;40.00;32.67;;;;;34.56;15.72;100345.66;5040192;28;45309;-78
2022/03/29 11:07:35;;;;;;;;;38.33;33.33;;;;;34.36;15.82;100342.78;5058664;28;45893;-78
2022/03/29 11:10:19;;;;;;;;;36.00;31.67;;;;;34.41;16.08;100336.91;5063025;27;45475;-77
2022/03/29 11:12:46;;;;;;;;;41.67;32.67;;;;;34.07;15.95;100296.66;5074527;27;45447;-79
2022/03/29 11:15:36;;;;;;;;;31.00;27.33;;;;;34.49;16.20;100334.34;5063995;28;45337;-80
2022/03/29 11:18:07;;;;;;;;;28.00;24.00;;;;;34.33;16.21;100285.25;5055163;28;45362;-80
2022/03/29 11:20:39;;;;;;;;;36.33;29.67;;;;;34.80;15.62;100338.00;5055145;27;45310;-79
2022/03/29 11:23:04;;;;;;;;;34.67;31.00;;;;;34.62;15.73;100332.22;5054000;28;45405;-79